04:21
Airports
History
Links
Donate
Help keep this website running!
PayPal
Bitcoin
Information on this page is community maintained and may be outdated or inaccurate and is intended for reference only or PC simulator navigating!
Always use approved charts for navigating.
LIMP
PARMA
PARMA (LIMP)
Parma, Emilia-Romagna, Italy (43126)
(C)
Lat/Lng:44° 49' 36.39" N / 10° 17' 49.59" E
44.826774 / 10.297108
Elevation:161'ft 49mMSL
ID / ICAO:LIMP
Runways:1
Longest:(02-20) 2,124.3m 6,969ft Asphalt
Controlled:Yes
Distance To
Airport ID:
Airport Radio Frequencies
Tower: 118.45
Approach: 126.55
Nearby VORs <50NM
Nearby NDBs
Nearby WeatherUpdated 03-28-17 03:55 GMT
Nearby weather at LIMS, PIACENZA located 28.8 nautical miles from LIMP
Altimeter: 30.21
Visibility: 6.2 statute miles
Wind: 8 knots (250°)
Temp: 3°c 37°f
Humidity: 86.7%

METAR: LIMS 280355Z 25008KT 200V270 CAVOK 03/01 Q1023

(Powered by phpweather)
Runway 02 / 20
Dimensions:2124.3 x 45.1m 6969' x 148'ft
Surface:Asphalt
Edge Lights:Medium intensity
Runway 02 [A]Runway 20 [B]
Heading:017°TH 197°TH
Lat:
Lng:
44° 49' 3.56"N
10° 17' 35.26"E
44° 50' 9.21"N
10° 18' 3.91"E
ALS:ALSF-I
Google Map
Nearby Airports
(U) REGGIO EMILIA 20.1 NM
LIDE ESE 116°
(U) Cremona Migliaro 27.6 NM
LILR NNW 328°
(U) Carpi Budrione 28.2 NM
LIDU E 88°
(R) Modena Marzaglia 28.8 NM
LIPM ESE 117°
(C) PIACENZA 28.8 NM
LIMS (WX) WNW 282°
4 Mantova 32.3 NM
LIDM NE 48°
(C) Montichiari 41.6 NM
LIPO N
VFR Chart
Flight Planning at SkyVector.com